createdAt,value
2023-04-11T00:00:46.952Z,72.28
2023-04-11T00:01:47.004Z,71.56
2023-04-11T00:02:47.191Z,69.84
2023-04-11T00:03:47.060Z,68.62
2023-04-11T00:04:47.000Z,70.24
2023-04-11T00:05:46.883Z,70.14
2023-04-11T00:06:46.903Z,69.09
2023-04-11T00:07:46.863Z,69.09
2023-04-11T00:08:46.881Z,68.99
2023-04-11T00:09:46.846Z,70.10
2023-04-11T00:10:46.832Z,71.53
2023-04-11T00:11:46.819Z,72.58
2023-04-11T00:12:46.823Z,71.87
2023-04-11T00:13:46.803Z,73.30
2023-04-11T00:14:46.760Z,72.89
2023-04-11T00:15:46.775Z,73.71
2023-04-11T00:16:46.812Z,72.28
2023-04-11T00:17:46.772Z,74.15
2023-04-11T00:18:46.761Z,77.20
2023-04-11T00:19:46.748Z,78.63
2023-04-11T00:20:46.730Z,78.56
2023-04-11T00:21:46.713Z,78.50
2023-04-11T00:22:46.699Z,78.80
2023-04-11T00:23:46.686Z,80.54
2023-04-11T00:24:46.676Z,79.62
2023-04-11T00:25:46.688Z,79.52
2023-04-11T00:26:46.630Z,79.35
2023-04-11T00:27:46.616Z,79.45
2023-04-11T00:28:46.605Z,79.14
2023-04-11T00:29:46.592Z,78.23
2023-04-11T00:30:46.611Z,78.43
2023-04-11T00:31:46.632Z,79.45
2023-04-11T00:32:46.666Z,80.57
2023-04-11T00:33:46.592Z,80.07
2023-04-11T00:34:46.561Z,81.29
2023-04-11T00:35:46.553Z,81.90
2023-04-11T00:36:46.570Z,83.47
2023-04-11T00:37:46.521Z,83.78
2023-04-11T00:38:46.537Z,84.63
2023-04-11T00:39:46.503Z,85.55
2023-04-11T00:40:46.479Z,84.94
2023-04-11T00:41:46.464Z,83.00
2023-04-11T00:42:46.496Z,83.10
2023-04-11T00:43:46.473Z,82.59
2023-04-11T00:44:46.468Z,81.46
2023-04-11T00:45:46.523Z,80.41
2023-04-11T00:46:46.435Z,81.32
2023-04-11T00:47:46.525Z,81.53
2023-04-11T00:48:46.416Z,81.32
2023-04-11T00:49:46.401Z,79.80
2023-04-11T00:50:46.404Z,79.80
2023-04-11T00:51:46.368Z,80.41
2023-04-11T00:52:46.388Z,80.00
2023-04-11T00:53:46.355Z,77.86
2023-04-11T00:54:46.316Z,78.84
2023-04-11T00:55:46.344Z,76.59
2023-04-11T00:56:46.294Z,77.31
2023-04-11T00:57:46.306Z,77.21
2023-04-11T00:58:46.284Z,75.54
2023-04-11T00:59:46.292Z,77.89
2023-04-11T01:00:46.269Z,77.68
2023-04-11T01:01:46.300Z,76.87
2023-04-11T01:02:46.360Z,77.78
2023-04-11T01:03:46.351Z,78.09
2023-04-11T01:04:46.246Z,77.37
2023-04-11T01:05:46.232Z,77.27
2023-04-11T01:06:46.208Z,76.76
2023-04-11T01:07:46.193Z,80.23
2023-04-11T01:08:46.190Z,81.49
2023-04-11T01:09:46.169Z,80.68
2023-04-11T01:10:46.175Z,81.70
2023-04-11T01:11:46.180Z,81.80
2023-04-11T01:12:46.162Z,81.59
2023-04-11T01:13:46.126Z,82.86
2023-04-11T01:14:46.127Z,81.53
2023-04-11T01:15:46.114Z,81.23
2023-04-11T01:16:46.166Z,82.45
2023-04-11T01:17:46.116Z,82.14
2023-04-11T01:18:46.085Z,83.06
2023-04-11T01:19:46.065Z,81.73
2023-04-11T01:20:46.033Z,83.06
2023-04-11T01:21:46.066Z,86.12
2023-04-11T01:22:46.041Z,84.94
2023-04-11T01:23:46.012Z,85.24
2023-04-11T01:24:46.029Z,85.14
2023-04-11T01:25:45.969Z,84.83
2023-04-11T01:26:46.015Z,84.83
2023-04-11T01:27:45.955Z,86.36
2023-04-11T01:28:45.984Z,86.88
2023-04-11T01:29:45.955Z,87.18
2023-04-11T01:30:45.989Z,84.42
2023-04-11T01:31:45.945Z,85.65
2023-04-11T01:32:45.959Z,84.12
2023-04-11T01:33:45.962Z,84.22
2023-04-11T01:34:45.908Z,84.39
2023-04-11T01:35:45.895Z,85.21
2023-04-11T01:36:45.854Z,85.30
2023-04-11T01:37:45.877Z,86.77
2023-04-11T01:38:45.850Z,88.20
2023-04-11T01:39:45.844Z,88.96
2023-04-11T01:40:45.836Z,89.06
2023-04-11T01:41:45.825Z,89.88
2023-04-11T01:42:45.810Z,90.19
2023-04-11T01:43:45.810Z,91.31
2023-04-11T01:44:45.793Z,92.88
2023-04-11T01:45:45.778Z,94.52
2023-04-11T01:46:45.779Z,94.93
2023-04-11T01:47:45.872Z,95.13
2023-04-11T01:48:46.029Z,95.18
2023-04-11T01:49:45.731Z,94.26
2023-04-11T01:50:45.697Z,93.74
2023-04-11T01:51:45.725Z,93.13
2023-04-11T01:52:45.684Z,94.26
2023-04-11T01:53:45.662Z,95.59
2023-04-11T01:54:45.690Z,95.79
2023-04-11T01:55:45.629Z,96.10
2023-04-11T01:56:45.678Z,97.12
2023-04-11T01:57:45.631Z,98.24
2023-04-11T01:58:45.643Z,98.49
2023-04-11T01:59:45.621Z,99.11
2023-04-11T02:00:45.640Z,99.31
2023-04-11T02:01:45.654Z,99.99
2023-04-11T02:02:45.665Z,99.99
2023-04-11T02:03:45.688Z,99.99
2023-04-11T02:04:45.549Z,99.99
2023-04-11T02:05:45.554Z,99.99
2023-04-11T02:06:45.605Z,99.99
2023-04-11T02:07:45.520Z,99.99
2023-04-11T02:08:45.521Z,99.99
2023-04-11T02:09:45.513Z,99.99
2023-04-11T02:10:45.484Z,99.99
2023-04-11T02:11:45.496Z,99.99
2023-04-11T02:12:45.460Z,99.99
2023-04-11T02:13:45.460Z,99.99
2023-04-11T02:14:45.439Z,99.99
2023-04-11T02:15:45.508Z,99.99
2023-04-11T02:16:45.430Z,99.99
2023-04-11T02:17:45.719Z,99.99
2023-04-11T02:18:45.407Z,99.99
2023-04-11T02:19:45.529Z,99.99
2023-04-11T02:20:45.376Z,99.99
2023-04-11T02:21:45.368Z,99.99
2023-04-11T02:22:45.372Z,99.99
2023-04-11T02:23:45.357Z,99.99
2023-04-11T02:24:45.332Z,99.99
2023-04-11T02:25:45.327Z,99.99
2023-04-11T02:26:45.303Z,99.99
2023-04-11T02:27:45.297Z,99.99
2023-04-11T02:28:45.295Z,99.99
2023-04-11T02:29:45.304Z,99.99
2023-04-11T02:30:45.366Z,99.99
2023-04-11T02:31:45.337Z,99.99
2023-04-11T02:32:45.314Z,99.99
2023-04-11T02:33:45.244Z,99.66
2023-04-11T02:34:45.220Z,99.98
2023-04-11T02:35:45.268Z,99.99
2023-04-11T02:36:45.214Z,99.99
2023-04-11T02:37:45.190Z,99.99
2023-04-11T02:38:45.181Z,99.99
2023-04-11T02:39:45.170Z,99.91
2023-04-11T02:40:45.158Z,99.82
2023-04-11T02:41:45.154Z,99.99
2023-04-11T02:42:45.147Z,99.71
2023-04-11T02:43:45.132Z,97.30
2023-04-11T02:44:45.100Z,97.81
2023-04-11T02:45:45.118Z,98.02
2023-04-11T02:46:45.126Z,97.61
2023-04-11T02:47:45.160Z,97.20
2023-04-11T02:48:45.070Z,97.81
2023-04-11T02:49:45.027Z,97.50
2023-04-11T02:50:45.056Z,96.17
2023-04-11T02:51:45.058Z,96.79
2023-04-11T02:52:47.253Z,97.91
2023-04-11T02:53:44.992Z,98.74
2023-04-11T02:54:45.005Z,98.74
2023-04-11T02:55:44.992Z,99.96
2023-04-11T02:56:44.978Z,99.60
2023-04-11T02:57:44.967Z,99.50
2023-04-11T02:58:44.946Z,99.99
2023-04-11T02:59:44.958Z,99.91
2023-04-11T03:00:44.940Z,98.99
2023-04-11T03:01:45.040Z,99.09
2023-04-11T03:02:44.996Z,98.47
2023-04-11T03:03:45.069Z,98.58
2023-04-11T03:04:44.903Z,98.78
2023-04-11T03:05:44.896Z,99.50
2023-04-11T03:06:44.882Z,99.40
2023-04-11T03:07:44.859Z,99.40
2023-04-11T03:08:44.847Z,99.60
2023-04-11T03:09:44.833Z,99.99
2023-04-11T03:10:44.833Z,99.99
2023-04-11T03:11:47.347Z,98.37
2023-04-11T03:12:44.785Z,98.07
2023-04-11T03:13:44.812Z,98.37
2023-04-11T03:14:44.816Z,98.58
2023-04-11T03:15:44.827Z,99.40
2023-04-11T03:16:44.749Z,99.91
2023-04-11T03:17:44.786Z,99.99
2023-04-11T03:18:44.732Z,99.99
2023-04-11T03:19:44.715Z,99.99
2023-04-11T03:20:44.704Z,99.99
2023-04-11T03:21:44.700Z,99.99
2023-04-11T03:22:44.686Z,99.99
2023-04-11T03:23:44.680Z,99.99
2023-04-11T03:24:44.645Z,99.99
2023-04-11T03:25:44.736Z,99.99
2023-04-11T03:26:44.620Z,99.99
2023-04-11T03:27:44.658Z,99.99
2023-04-11T03:28:44.626Z,99.99
2023-04-11T03:29:44.617Z,99.99
2023-04-11T03:30:44.610Z,99.99
2023-04-11T03:31:44.659Z,99.99
2023-04-11T03:32:44.628Z,99.99
2023-04-11T03:33:44.581Z,99.99
2023-04-11T03:34:44.594Z,99.99
2023-04-11T03:35:44.560Z,99.99
2023-04-11T03:36:44.546Z,99.99
2023-04-11T03:37:44.547Z,99.99
2023-04-11T03:38:44.486Z,99.99
2023-04-11T03:39:44.520Z,99.99
2023-04-11T03:40:44.516Z,99.99
2023-04-11T03:41:44.486Z,99.99
2023-04-11T03:42:44.467Z,99.99
2023-04-11T03:43:44.478Z,99.99
2023-04-11T03:44:44.450Z,99.99
2023-04-11T03:45:44.418Z,99.99
2023-04-11T03:46:44.501Z,99.99
2023-04-11T03:47:44.417Z,99.99
2023-04-11T03:48:44.408Z,99.99
2023-04-11T03:49:44.380Z,99.99
2023-04-11T03:50:44.396Z,99.99
2023-04-11T03:51:44.384Z,99.99
2023-04-11T03:52:44.328Z,99.99
2023-04-11T03:53:44.340Z,99.99
2023-04-11T03:54:46.391Z,99.99
2023-04-11T03:55:44.326Z,99.99
2023-04-11T03:56:44.303Z,99.99
2023-04-11T03:57:44.321Z,99.99
2023-04-11T03:58:44.279Z,99.99
2023-04-11T03:59:44.272Z,99.99
2023-04-11T04:00:44.258Z,99.99
2023-04-11T04:01:44.287Z,99.99
2023-04-11T04:02:44.419Z,99.99
2023-04-11T04:03:44.321Z,99.99
2023-04-11T04:04:44.291Z,99.99
2023-04-11T04:05:44.190Z,99.99
2023-04-11T04:06:44.204Z,99.99
2023-04-11T04:07:44.207Z,99.99
2023-04-11T04:08:44.180Z,99.29
2023-04-11T04:09:44.170Z,99.70
2023-04-11T04:10:44.144Z,99.99
2023-04-11T04:11:44.139Z,99.99
2023-04-11T04:12:44.098Z,99.19
2023-04-11T04:13:44.085Z,95.05
2023-04-11T04:14:44.112Z,93.51
2023-04-11T04:15:44.093Z,94.64
2023-04-11T04:16:44.124Z,94.89
2023-04-11T04:17:44.106Z,95.54
2023-04-11T04:18:44.026Z,96.20
2023-04-11T04:19:44.063Z,96.77
2023-04-11T04:20:44.055Z,96.09
2023-04-11T04:21:44.046Z,95.17
2023-04-11T04:22:43.990Z,95.37
2023-04-11T04:23:44.009Z,95.52
2023-04-11T04:24:43.994Z,96.65
2023-04-11T04:25:43.988Z,95.93
2023-04-11T04:26:43.989Z,96.23
2023-04-11T04:27:43.987Z,97.31
2023-04-11T04:28:43.931Z,97.10
2023-04-11T04:29:43.950Z,98.28
2023-04-11T04:30:43.922Z,99.62
2023-04-11T04:31:43.935Z,99.99
2023-04-11T04:32:44.004Z,99.99
2023-04-11T04:33:43.887Z,99.99
2023-04-11T04:34:43.856Z,98.63
2023-04-11T04:35:43.899Z,99.25
2023-04-11T04:36:43.856Z,99.97
2023-04-11T04:37:43.846Z,98.43
2023-04-11T04:38:43.851Z,98.53
2023-04-11T04:39:43.865Z,99.35
2023-04-11T04:40:43.791Z,99.99
2023-04-11T04:41:43.807Z,99.99
2023-04-11T04:42:43.805Z,99.99
2023-04-11T04:43:43.799Z,99.15
2023-04-11T04:44:43.767Z,99.56
2023-04-11T04:45:43.799Z,99.77
2023-04-11T04:46:43.756Z,99.46
2023-04-11T04:47:43.753Z,99.97
2023-04-11T04:48:43.727Z,99.46
2023-04-11T04:49:43.715Z,98.02
2023-04-11T04:50:43.694Z,97.91
2023-04-11T04:51:43.703Z,98.63
2023-04-11T04:52:43.693Z,99.05
2023-04-11T04:53:43.685Z,99.99
2023-04-11T04:54:43.691Z,99.99
2023-04-11T04:55:43.651Z,99.99
2023-04-11T04:56:43.646Z,99.99
2023-04-11T04:57:43.636Z,99.99
2023-04-11T04:58:43.626Z,99.99
2023-04-11T04:59:43.630Z,98.88
2023-04-11T05:00:43.637Z,98.72
2023-04-11T05:01:43.670Z,96.25
2023-04-11T05:02:43.738Z,98.21
2023-04-11T05:03:43.656Z,99.60
2023-04-11T05:04:43.563Z,97.02
2023-04-11T05:05:43.552Z,97.33
2023-04-11T05:06:43.537Z,98.46
2023-04-11T05:07:43.519Z,97.33
2023-04-11T05:08:43.529Z,97.43
2023-04-11T05:09:43.490Z,97.74
2023-04-11T05:10:43.473Z,97.43
2023-04-11T05:11:43.483Z,97.64
2023-04-11T05:12:43.454Z,97.58
2023-04-11T05:13:43.445Z,96.96
2023-04-11T05:14:43.453Z,97.48
2023-04-11T05:15:43.427Z,98.50
2023-04-11T05:16:43.436Z,98.61
2023-04-11T05:17:43.531Z,98.14
2023-04-11T05:18:43.386Z,98.24
2023-04-11T05:19:43.410Z,98.76
2023-04-11T05:20:43.370Z,99.17
2023-04-11T05:21:43.360Z,97.05
2023-04-11T05:22:43.371Z,95.92
2023-04-11T05:23:43.330Z,96.84
2023-04-11T05:24:43.345Z,97.77
2023-04-11T05:25:43.291Z,98.91
2023-04-11T05:26:43.316Z,99.11
2023-04-11T05:27:43.315Z,99.43
2023-04-11T05:28:43.291Z,99.99
2023-04-11T05:29:43.283Z,99.99
2023-04-11T05:30:43.325Z,99.99
2023-04-11T05:31:43.269Z,99.99
2023-04-11T05:32:43.291Z,99.99
2023-04-11T05:33:43.250Z,99.99
2023-04-11T05:34:43.220Z,99.99
2023-04-11T05:35:43.239Z,99.99
2023-04-11T05:36:43.179Z,99.99
2023-04-11T05:37:43.221Z,99.99
2023-04-11T05:38:43.201Z,99.99
2023-04-11T05:39:43.212Z,99.99
2023-04-11T05:40:43.136Z,99.99
2023-04-11T05:41:43.155Z,99.99
2023-04-11T05:42:43.152Z,99.99
2023-04-11T05:43:43.168Z,99.99
2023-04-11T05:44:43.110Z,99.99
2023-04-11T05:45:43.144Z,99.99
2023-04-11T05:46:43.124Z,99.99
2023-04-11T05:47:43.138Z,99.99
2023-04-11T05:48:43.077Z,99.99
2023-04-11T05:49:43.128Z,99.99
2023-04-11T05:50:43.179Z,99.99
2023-04-11T05:51:43.054Z,99.99
2023-04-11T05:52:43.038Z,99.99
2023-04-11T05:53:43.020Z,99.99
2023-04-11T05:54:43.003Z,99.99
2023-04-11T05:55:42.993Z,99.99
2023-04-11T05:56:42.997Z,99.99
2023-04-11T05:57:43.011Z,99.99
2023-04-11T05:58:42.929Z,99.99
2023-04-11T05:59:42.978Z,99.99
2023-04-11T06:00:42.947Z,99.99
2023-04-11T06:01:42.987Z,99.99
2023-04-11T06:02:43.127Z,99.99
2023-04-11T06:03:43.037Z,99.99
2023-04-11T06:04:42.977Z,99.99
2023-04-11T06:05:42.895Z,99.99
2023-04-11T06:06:42.869Z,99.99
2023-04-11T06:07:42.879Z,99.99
2023-04-11T06:08:42.887Z,99.99
2023-04-11T06:09:42.886Z,99.99
2023-04-11T06:10:42.820Z,99.99
2023-04-11T06:11:42.811Z,99.99
2023-04-11T06:12:42.806Z,99.99
2023-04-11T06:13:42.781Z,99.99
2023-04-11T06:14:42.789Z,99.99
2023-04-11T06:15:42.759Z,99.99
2023-04-11T06:16:42.756Z,99.99
2023-04-11T06:17:42.799Z,99.99
2023-04-11T06:18:42.725Z,99.99
2023-04-11T06:19:42.701Z,99.99
2023-04-11T06:20:42.740Z,99.99
2023-04-11T06:21:42.715Z,99.99
2023-04-11T06:22:42.687Z,99.99
2023-04-11T06:23:42.669Z,99.99
2023-04-11T06:24:42.680Z,99.99
2023-04-11T06:25:42.645Z,99.99
2023-04-11T06:26:42.659Z,99.99
2023-04-11T06:27:42.664Z,99.99
2023-04-11T06:28:42.625Z,99.99
2023-04-11T06:29:42.613Z,99.99
2023-04-11T06:30:42.618Z,99.99
2023-04-11T06:31:42.705Z,99.99
2023-04-11T06:32:42.673Z,99.99
2023-04-11T06:33:42.577Z,99.99
2023-04-11T06:34:42.580Z,99.99
2023-04-11T06:35:42.574Z,99.99
2023-04-11T06:36:42.644Z,99.99
2023-04-11T06:37:42.558Z,99.99
2023-04-11T06:38:42.551Z,99.99
2023-04-11T06:39:42.513Z,99.99
2023-04-11T06:40:42.506Z,99.99
2023-04-11T06:41:42.484Z,99.99
2023-04-11T06:42:42.511Z,99.99
2023-04-11T06:43:42.453Z,99.99
2023-04-11T06:44:42.520Z,99.99
2023-04-11T06:45:42.454Z,99.99
2023-04-11T06:46:42.471Z,99.99
2023-04-11T06:47:42.439Z,99.99
2023-04-11T06:48:42.415Z,99.99
2023-04-11T06:49:42.403Z,99.99
2023-04-11T06:50:42.399Z,99.99
2023-04-11T06:51:42.373Z,99.99
2023-04-11T06:52:42.369Z,99.99
2023-04-11T06:53:42.335Z,99.99
2023-04-11T06:54:42.352Z,99.99
2023-04-11T06:55:42.321Z,99.99
2023-04-11T06:56:42.307Z,99.99
2023-04-11T06:57:42.321Z,99.99
2023-04-11T06:58:42.288Z,99.99
2023-04-11T06:59:42.284Z,99.99
2023-04-11T07:00:42.267Z,99.99
2023-04-11T07:01:42.323Z,99.99
2023-04-11T07:02:42.434Z,99.99
2023-04-11T07:03:42.496Z,99.99
2023-04-11T07:04:42.316Z,99.99
2023-04-11T07:05:42.211Z,99.99
2023-04-11T07:06:42.201Z,99.99
2023-04-11T07:07:42.187Z,99.99
2023-04-11T07:08:42.222Z,99.99
2023-04-11T07:09:42.172Z,99.99
2023-04-11T07:10:42.180Z,99.99
2023-04-11T07:11:42.154Z,99.99
2023-04-11T07:12:42.119Z,99.99
2023-04-11T07:13:42.127Z,99.99
2023-04-11T07:14:42.116Z,99.99
2023-04-11T07:15:42.119Z,99.99
2023-04-11T07:16:42.104Z,99.99
2023-04-11T07:17:42.146Z,99.99
2023-04-11T07:18:42.084Z,99.99
2023-04-11T07:19:42.088Z,99.85
2023-04-11T07:20:42.090Z,99.99
2023-04-11T07:21:42.065Z,99.74
2023-04-11T07:22:42.041Z,98.41
2023-04-11T07:23:42.025Z,99.33
2023-04-11T07:24:42.015Z,99.60
2023-04-11T07:25:41.988Z,99.99
2023-04-11T07:26:42.010Z,99.99
2023-04-11T07:27:41.956Z,98.97
2023-04-11T07:28:41.940Z,99.14
2023-04-11T07:29:41.954Z,99.99
2023-04-11T07:30:41.937Z,99.99
2023-04-11T07:31:42.034Z,99.99
2023-04-11T07:32:41.946Z,99.99
2023-04-11T07:33:41.898Z,99.99
2023-04-11T07:34:41.916Z,99.99
2023-04-11T07:35:41.896Z,99.99
2023-04-11T07:36:41.858Z,99.99
2023-04-11T07:37:41.859Z,99.04
2023-04-11T07:38:41.859Z,98.42
2023-04-11T07:39:41.808Z,99.99
2023-04-11T07:40:41.827Z,99.99
2023-04-11T07:41:41.839Z,99.24
2023-04-11T07:42:41.808Z,99.55
2023-04-11T07:43:41.778Z,99.99
2023-04-11T07:44:41.788Z,99.34
2023-04-11T07:45:41.826Z,99.14
2023-04-11T07:46:41.762Z,99.55
2023-04-11T07:47:41.765Z,99.86
2023-04-11T07:48:41.744Z,99.86
2023-04-11T07:49:41.702Z,99.24
2023-04-11T07:50:41.730Z,99.96
2023-04-11T07:51:41.717Z,99.99
2023-04-11T07:52:41.702Z,99.91
2023-04-11T07:53:41.682Z,99.81
2023-04-11T07:54:41.644Z,98.42
2023-04-11T07:55:41.650Z,98.62
2023-04-11T07:56:41.660Z,98.93
2023-04-11T07:57:41.644Z,99.34
2023-04-11T07:58:41.637Z,99.24
2023-04-11T07:59:41.605Z,98.21
2023-04-11T08:00:41.624Z,99.14
2023-04-11T08:01:41.637Z,98.47
2023-04-11T08:02:41.725Z,98.88
2023-04-11T08:03:41.692Z,99.99
2023-04-11T08:04:41.712Z,98.27
2023-04-11T08:05:41.521Z,95.90
2023-04-11T08:06:41.567Z,96.21
2023-04-11T08:07:41.541Z,96.93
2023-04-11T08:08:41.513Z,98.02
2023-04-11T08:09:41.519Z,96.37
2023-04-11T08:10:41.521Z,94.77
2023-04-11T08:11:41.501Z,96.37
2023-04-11T08:12:41.491Z,95.96
2023-04-11T08:13:41.455Z,94.62
2023-04-11T08:14:41.462Z,95.55
2023-04-11T08:15:41.437Z,95.86
2023-04-11T08:16:41.467Z,94.37
2023-04-11T08:17:41.545Z,91.70
2023-04-11T08:18:41.391Z,91.49
2023-04-11T08:19:41.369Z,93.04
2023-04-11T08:20:41.366Z,93.65
2023-04-11T08:21:41.373Z,93.82
2023-04-11T08:22:41.388Z,94.33
2023-04-11T08:23:41.333Z,96.80
2023-04-11T08:24:41.346Z,96.23
2023-04-11T08:25:41.347Z,96.34
2023-04-11T08:26:41.327Z,95.01
2023-04-11T08:27:41.315Z,95.47
2023-04-11T08:28:42.961Z,95.27
2023-04-11T08:29:41.289Z,95.37
2023-04-11T08:30:41.332Z,95.12
2023-04-11T08:31:41.258Z,96.56
2023-04-11T08:32:41.384Z,95.12
2023-04-11T08:33:41.231Z,92.66
2023-04-11T08:34:41.247Z,90.40
2023-04-11T08:35:41.233Z,92.35
2023-04-11T08:36:41.211Z,91.84
2023-04-11T08:37:41.210Z,91.02
2023-04-11T08:38:41.183Z,93.83
2023-04-11T08:39:41.169Z,94.14
2023-04-11T08:40:41.163Z,94.24
2023-04-11T08:41:41.164Z,94.55
2023-04-11T08:42:41.362Z,94.76
2023-04-11T08:43:41.146Z,92.60
2023-04-11T08:44:41.098Z,95.06
2023-04-11T08:45:41.229Z,96.09
2023-04-11T08:46:41.086Z,95.47
2023-04-11T08:47:42.565Z,96.15
2023-04-11T08:48:41.066Z,94.40
2023-04-11T08:49:41.061Z,92.14
2023-04-11T08:50:41.042Z,92.46
2023-04-11T08:51:41.028Z,92.25
2023-04-11T08:52:41.655Z,92.70
2023-04-11T08:53:41.021Z,92.80
2023-04-11T08:54:41.003Z,93.83
2023-04-11T08:55:40.994Z,93.73
2023-04-11T08:56:40.994Z,93.93
2023-04-11T08:57:40.992Z,94.30
2023-04-11T08:58:43.470Z,94.30
2023-04-11T08:59:40.939Z,94.67
2023-04-11T09:00:40.905Z,94.36
2023-04-11T09:01:41.190Z,94.77
2023-04-11T09:02:41.010Z,93.64
2023-04-11T09:03:40.907Z,91.38
2023-04-11T09:04:40.907Z,91.49
2023-04-11T09:05:40.877Z,91.69
2023-04-11T09:06:40.882Z,92.51
2023-04-11T09:07:40.863Z,91.28
2023-04-11T09:08:40.869Z,90.56
2023-04-11T09:09:40.973Z,88.10
2023-04-11T09:10:40.820Z,88.06
2023-04-11T09:11:40.803Z,91.44
2023-04-11T09:12:40.816Z,90.93
2023-04-11T09:13:40.816Z,90.93
2023-04-11T09:14:40.800Z,88.10
2023-04-11T09:15:40.786Z,88.31
2023-04-11T09:16:40.764Z,86.57
2023-04-11T09:17:40.810Z,89.13
2023-04-11T09:18:40.737Z,90.56
2023-04-11T09:19:40.734Z,88.31
2023-04-11T09:20:40.719Z,88.06
2023-04-11T09:21:40.700Z,88.06
2023-04-11T09:22:43.048Z,88.98
2023-04-11T09:23:40.717Z,87.55
2023-04-11T09:24:40.669Z,86.77
2023-04-11T09:25:40.649Z,89.54
2023-04-11T09:26:40.660Z,89.84
2023-04-11T09:27:40.646Z,90.62
2023-04-11T09:28:40.634Z,92.06
2023-04-11T09:29:40.600Z,91.61
2023-04-11T09:30:40.610Z,91.05
2023-04-11T09:31:40.745Z,90.23
2023-04-11T09:32:40.606Z,85.93
2023-04-11T09:33:40.577Z,83.27
2023-04-11T09:34:42.338Z,84.19
2023-04-11T09:35:40.546Z,86.24
2023-04-11T09:36:40.542Z,84.50
2023-04-11T09:37:40.505Z,85.11
2023-04-11T09:38:40.518Z,86.34
2023-04-11T09:39:40.504Z,86.14
2023-04-11T09:40:40.501Z,85.77
2023-04-11T09:41:40.506Z,85.66
2023-04-11T09:42:40.472Z,85.11
2023-04-11T09:43:40.445Z,84.95
2023-04-11T09:44:40.465Z,85.39
2023-04-11T09:45:51.622Z,85.03
2023-04-11T09:46:40.470Z,84.41
2023-04-11T09:47:41.794Z,86.15
2023-04-11T09:49:40.384Z,86.15
2023-04-11T09:50:40.402Z,85.95
2023-04-11T09:51:40.333Z,85.33
2023-04-11T09:52:40.367Z,86.36
2023-04-11T09:53:40.346Z,85.71
2023-04-11T09:54:40.330Z,87.85
2023-04-11T09:55:40.310Z,88.37
2023-04-11T09:56:40.281Z,88.47
2023-04-11T09:57:40.306Z,87.92
2023-04-11T09:58:40.294Z,88.43
2023-04-11T09:59:40.272Z,86.07
2023-04-11T10:00:40.278Z,85.15
2023-04-11T10:01:40.297Z,86.99
2023-04-11T10:02:40.379Z,86.58
2023-04-11T10:03:40.341Z,86.28
2023-04-11T10:04:40.243Z,84.88
2023-04-11T10:05:40.215Z,83.96
2023-04-11T10:06:40.184Z,83.86
2023-04-11T10:07:40.192Z,83.55
2023-04-11T10:08:40.185Z,84.88
2023-04-11T10:09:40.163Z,85.87
2023-04-11T10:10:40.163Z,82.79
2023-04-11T10:11:40.131Z,81.46
2023-04-11T10:12:40.120Z,83.20
2023-04-11T10:13:40.144Z,83.31
2023-04-11T10:14:40.110Z,82.35
2023-04-11T10:15:40.107Z,82.69
2023-04-11T10:16:40.123Z,84.23
2023-04-11T10:17:40.121Z,83.31
2023-04-11T10:18:40.082Z,83.20
2023-04-11T10:19:40.063Z,83.06
2023-04-11T10:20:40.049Z,84.91
2023-04-11T10:21:40.036Z,85.11
2023-04-11T10:22:40.008Z,84.36
2023-04-11T10:23:39.999Z,82.41
2023-04-11T10:24:39.998Z,81.04
2023-04-11T10:25:39.992Z,81.96
2023-04-11T10:26:39.978Z,81.15
2023-04-11T10:27:39.969Z,82.17
2023-04-11T10:28:39.947Z,84.28
2023-04-11T10:29:39.956Z,83.76
2023-04-11T10:30:39.961Z,79.57
2023-04-11T10:31:39.965Z,80.19
2023-04-11T10:32:39.977Z,78.20
2023-04-11T10:33:39.916Z,80.56
2023-04-11T10:34:39.897Z,78.11
2023-04-11T10:35:39.909Z,77.29
2023-04-11T10:36:39.869Z,79.13
2023-04-11T10:37:39.856Z,78.24
2023-04-11T10:38:39.848Z,80.39
2023-04-11T10:39:39.829Z,80.35
2023-04-11T10:40:39.853Z,79.84
2023-04-11T10:41:40.530Z,79.33
2023-04-11T10:42:39.787Z,80.25
2023-04-11T10:43:39.794Z,81.03
2023-04-11T10:44:39.744Z,79.29
2023-04-11T10:45:39.783Z,79.19
2023-04-11T10:46:39.833Z,79.29
2023-04-11T10:47:39.784Z,78.78
2023-04-11T10:48:39.702Z,78.38
2023-04-11T10:49:39.738Z,76.43
2023-04-11T10:50:39.716Z,79.77
2023-04-11T10:51:39.714Z,77.22
2023-04-11T10:52:39.695Z,79.57
2023-04-11T10:53:39.708Z,75.75
2023-04-11T10:54:39.639Z,77.08
2023-04-11T10:55:39.665Z,77.42
2023-04-11T10:56:39.645Z,75.75
2023-04-11T10:57:39.634Z,74.22
2023-04-11T10:58:39.667Z,76.67
2023-04-11T10:59:39.610Z,75.24
2023-04-11T11:00:39.591Z,74.15
2023-04-11T11:02:40.108Z,73.57
2023-04-11T11:03:39.630Z,74.49
2023-04-11T11:04:39.669Z,74.05
2023-04-11T11:05:40.071Z,76.91
2023-04-11T11:06:47.212Z,77.36
2023-04-11T11:07:39.512Z,76.03
2023-04-11T11:08:39.520Z,74.08
2023-04-11T11:09:39.489Z,75.10
2023-04-11T11:10:39.495Z,76.43
2023-04-11T11:11:39.465Z,72.99
2023-04-11T11:12:39.458Z,74.11
2023-04-11T11:13:39.450Z,74.32
2023-04-11T11:14:39.465Z,76.88
2023-04-11T11:15:39.453Z,75.86
2023-04-11T11:16:39.436Z,76.03
2023-04-11T11:17:39.448Z,74.29
2023-04-11T11:18:39.396Z,73.68
2023-04-11T11:19:39.376Z,74.69
2023-04-11T11:20:39.370Z,74.87
2023-04-11T11:21:39.374Z,75.07
2023-04-11T11:22:39.421Z,75.85
2023-04-11T11:23:39.308Z,77.90
2023-04-11T11:24:39.314Z,78.17
2023-04-11T11:25:39.331Z,78.95
2023-04-11T11:26:39.303Z,73.30
2023-04-11T11:27:39.268Z,75.95
2023-04-11T11:28:39.300Z,76.87
2023-04-11T11:29:39.267Z,74.38
2023-04-11T11:30:39.230Z,72.65
2023-04-11T11:31:39.308Z,72.34
2023-04-11T11:32:39.265Z,70.92
2023-04-11T11:33:39.235Z,71.12
2023-04-11T11:34:39.231Z,73.57
2023-04-11T11:35:39.221Z,73.27
2023-04-11T11:36:39.241Z,71.56
2023-04-11T11:37:39.185Z,72.79
2023-04-11T11:38:39.154Z,72.86
2023-04-11T11:39:39.166Z,71.09
2023-04-11T11:40:39.137Z,70.89
2023-04-11T11:41:39.148Z,66.09
2023-04-11T11:42:39.112Z,66.50
2023-04-11T11:43:39.104Z,71.39
2023-04-11T11:44:39.103Z,68.84
2023-04-11T11:45:39.102Z,69.56
2023-04-11T11:46:39.186Z,70.68
2023-04-11T11:47:39.097Z,66.97
2023-04-11T11:48:39.058Z,65.75
2023-04-11T11:49:39.046Z,67.99
2023-04-11T11:50:39.030Z,69.42
2023-04-11T11:51:39.042Z,68.91
2023-04-11T11:52:38.980Z,68.81
2023-04-11T11:53:39.004Z,70.41
2023-04-11T11:54:39.004Z,70.41
2023-04-11T11:55:38.992Z,69.26
2023-04-11T11:56:38.953Z,68.75
2023-04-11T11:57:38.966Z,71.09
2023-04-11T11:58:38.943Z,67.43
2023-04-11T11:59:38.959Z,69.53
2023-04-11T12:00:38.946Z,69.29
2023-04-11T12:01:38.941Z,68.18
2023-04-11T12:02:39.170Z,69.80
2023-04-11T12:03:38.982Z,63.22
2023-04-11T12:04:39.073Z,63.04
2023-04-11T12:05:38.906Z,66.82
2023-04-11T12:06:38.849Z,68.54
2023-04-11T12:07:38.888Z,66.61
2023-04-11T12:08:38.833Z,69.26
2023-04-11T12:09:38.835Z,68.54
2023-04-11T12:10:38.816Z,68.71
2023-04-11T12:11:38.829Z,68.01
2023-04-11T12:12:38.793Z,68.92
2023-04-11T12:13:38.776Z,65.05
2023-04-11T12:14:38.773Z,64.11
2023-04-11T12:15:38.845Z,66.47
2023-04-11T12:16:38.743Z,65.16
2023-04-11T12:17:38.790Z,67.08
2023-04-11T12:18:38.731Z,66.88
2023-04-11T12:19:38.701Z,66.68
2023-04-11T12:20:38.692Z,65.16
2023-04-11T12:21:38.685Z,64.26
2023-04-11T12:22:38.693Z,66.91
2023-04-11T12:23:38.682Z,67.96
2023-04-11T12:24:38.663Z,67.76
2023-04-11T12:25:38.616Z,70.28
2023-04-11T12:26:45.561Z,67.39
2023-04-11T12:27:38.625Z,70.62
2023-04-11T12:28:38.617Z,62.81
2023-04-11T12:29:38.591Z,63.04
2023-04-11T12:30:38.606Z,63.15
2023-04-11T12:31:38.625Z,62.23
2023-04-11T12:32:38.659Z,63.15
2023-04-11T12:33:38.561Z,63.24
2023-04-11T12:34:38.538Z,62.81
2023-04-11T12:35:38.554Z,64.44
2023-04-11T12:36:38.526Z,65.43
2023-04-11T12:37:38.517Z,66.14
2023-04-11T12:38:38.498Z,65.33
2023-04-11T12:39:38.499Z,66.92
2023-04-11T12:40:38.448Z,60.85
2023-04-11T12:41:38.467Z,60.24
2023-04-11T12:42:49.057Z,64.44
2023-04-11T12:43:38.476Z,62.43
2023-04-11T12:44:38.443Z,61.61
2023-04-11T12:45:38.439Z,64.09
2023-04-11T12:46:38.478Z,62.80
2023-04-11T12:47:38.426Z,63.41
2023-04-11T12:48:38.370Z,66.27
2023-04-11T12:49:38.390Z,64.40
2023-04-11T12:50:38.378Z,63.96
2023-04-11T12:51:38.349Z,61.93
2023-04-11T12:52:38.358Z,62.77
2023-04-11T12:53:38.360Z,61.80
2023-04-11T12:54:38.346Z,62.62